Terminal Aerodrome Forecast
Issued by NWS

Home | Current Version | Previous Version | Text Only | Print | Product List | Glossary On
Versions: 1 2 3 4 5 6 7 8 9 10 11 12 13 14 15 16 17
000
FTUS46 KHNX 232320
TAFBFL
TAF
KBFL 232320Z 2400/2424 00000KT P6SM BKN040
     FM240600 06004KT P6SM SCT200
     FM241800 26005KT P6SM BKN250
     FM242200 31010G16KT P6SM BKN250=

USA.gov is the U.S. government's official web portal to all federal, state and local government web resources and services.